createdAt,value
2018-06-05T00:01:16.630Z,11.80
2018-06-05T00:03:43.841Z,13.00
2018-06-05T00:06:11.062Z,12.70
2018-06-05T00:08:38.289Z,13.90
2018-06-05T00:11:05.570Z,13.17
2018-06-05T00:13:32.852Z,14.43
2018-06-05T00:16:00.093Z,13.40
2018-06-05T00:18:27.319Z,13.80
2018-06-05T00:20:54.596Z,13.00
2018-06-05T00:23:21.824Z,13.40
2018-06-05T00:25:49.017Z,11.77
2018-06-05T00:28:16.300Z,12.00
2018-06-05T00:30:43.520Z,13.67
2018-06-05T00:33:10.861Z,12.43
2018-06-05T00:35:38.124Z,12.83
2018-06-05T00:38:05.367Z,13.13
2018-06-05T00:40:33.196Z,12.50
2018-06-05T00:43:00.467Z,12.30
2018-06-05T00:45:27.701Z,12.17
2018-06-05T00:47:54.941Z,12.60
2018-06-05T00:50:22.192Z,11.63
2018-06-05T00:52:49.390Z,11.70
2018-06-05T00:55:16.637Z,11.87
2018-06-05T00:57:43.832Z,12.07
2018-06-05T01:00:11.084Z,12.00
2018-06-05T01:02:39.317Z,11.10
2018-06-05T01:05:06.589Z,10.77
2018-06-05T01:07:34.140Z,11.73
2018-06-05T01:10:01.462Z,10.67
2018-06-05T01:12:28.719Z,10.97
2018-06-05T01:14:56.098Z,11.60
2018-06-05T01:17:23.326Z,11.00
2018-06-05T01:19:50.502Z,13.37
2018-06-05T01:22:17.728Z,10.97
2018-06-05T01:24:44.981Z,11.63
2018-06-05T01:27:12.190Z,11.30
2018-06-05T01:29:39.601Z,10.57
2018-06-05T01:32:06.897Z,11.93
2018-06-05T01:34:34.116Z,10.70
2018-06-05T01:37:01.297Z,10.77
2018-06-05T01:39:28.495Z,11.73
2018-06-05T01:41:55.704Z,10.40
2018-06-05T01:44:23.038Z,10.30
2018-06-05T01:46:50.288Z,10.20
2018-06-05T01:49:17.485Z,10.10
2018-06-05T01:51:44.688Z,10.30
2018-06-05T01:54:11.908Z,10.67
2018-06-05T01:56:39.237Z,9.13
2018-06-05T01:59:06.461Z,10.27
2018-06-05T02:01:33.701Z,10.50
2018-06-05T02:04:00.973Z,10.27
2018-06-05T02:06:28.300Z,10.50
2018-06-05T02:08:55.529Z,10.60
2018-06-05T02:11:22.808Z,9.93
2018-06-05T02:13:50.081Z,10.20
2018-06-05T02:16:17.282Z,10.30
2018-06-05T02:18:44.509Z,11.17
2018-06-05T02:21:11.717Z,9.73
2018-06-05T02:23:39.004Z,9.87
2018-06-05T02:26:06.193Z,9.77
2018-06-05T02:28:33.416Z,10.07
2018-06-05T02:31:00.957Z,10.27
2018-06-05T02:33:28.167Z,10.60
2018-06-05T02:35:55.362Z,10.57
2018-06-05T02:38:22.628Z,10.23
2018-06-05T02:40:51.932Z,10.87
2018-06-05T02:43:19.145Z,10.30
2018-06-05T02:45:46.417Z,11.30
2018-06-05T02:48:13.622Z,11.07
2018-06-05T02:50:40.863Z,10.40
2018-06-05T02:53:08.177Z,10.77
2018-06-05T02:55:35.453Z,11.27
2018-06-05T02:58:02.677Z,10.50
2018-06-05T03:00:29.940Z,10.50
2018-06-05T03:02:57.234Z,9.67
2018-06-05T03:05:24.480Z,9.07
2018-06-05T03:07:51.835Z,9.27
2018-06-05T03:10:19.054Z,9.77
2018-06-05T03:12:46.265Z,10.00
2018-06-05T03:15:13.492Z,9.43
2018-06-05T03:17:40.759Z,10.57
2018-06-05T03:20:07.951Z,9.50
2018-06-05T03:22:35.152Z,9.30
2018-06-05T03:25:02.434Z,10.10
2018-06-05T03:27:29.650Z,9.33
2018-06-05T03:29:56.955Z,9.93
2018-06-05T03:32:24.259Z,9.60
2018-06-05T03:34:51.510Z,9.47
2018-06-05T03:37:18.761Z,8.73
2018-06-05T03:39:46.014Z,9.00
2018-06-05T03:42:13.281Z,10.97
2018-06-05T03:44:40.584Z,8.37
2018-06-05T03:47:07.813Z,8.87
2018-06-05T03:49:39.934Z,8.57
2018-06-05T03:52:07.349Z,9.90
2018-06-05T03:54:34.659Z,9.83
2018-06-05T03:57:01.856Z,9.47
2018-06-05T03:59:29.105Z,9.70
2018-06-05T04:01:56.326Z,8.80
2018-06-05T04:04:23.551Z,9.30
2018-06-05T04:06:50.780Z,8.27
2018-06-05T04:09:18.007Z,8.87
2018-06-05T04:11:45.260Z,8.80
2018-06-05T04:14:12.517Z,8.83
2018-06-05T04:16:39.812Z,9.33
2018-06-05T04:19:07.200Z,9.10
2018-06-05T04:21:34.557Z,9.20
2018-06-05T04:24:01.780Z,9.33
2018-06-05T04:26:29.004Z,9.10
2018-06-05T04:28:56.253Z,8.73
2018-06-05T04:31:23.608Z,8.70
2018-06-05T04:33:50.802Z,8.70
2018-06-05T04:36:18.009Z,7.73
2018-06-05T04:38:45.260Z,8.50
2018-06-05T04:41:12.480Z,8.40
2018-06-05T04:43:39.821Z,7.47
2018-06-05T04:46:07.109Z,7.60
2018-06-05T04:48:34.328Z,8.60
2018-06-05T04:51:01.620Z,9.37
2018-06-05T04:53:28.936Z,10.00
2018-06-05T04:55:56.199Z,9.23
2018-06-05T04:58:23.484Z,10.23
2018-06-05T05:00:51.192Z,10.17
2018-06-05T05:03:18.513Z,11.30
2018-06-05T05:05:45.720Z,10.57
2018-06-05T05:08:13.119Z,11.20
2018-06-05T05:10:40.316Z,11.97
2018-06-05T05:13:07.556Z,11.93
2018-06-05T05:15:34.802Z,10.50
2018-06-05T05:18:02.084Z,10.23
2018-06-05T05:20:29.364Z,10.30
2018-06-05T05:22:58.049Z,9.20
2018-06-05T05:25:25.320Z,11.30
2018-06-05T05:27:52.556Z,12.17
2018-06-05T05:30:19.845Z,10.87
2018-06-05T05:32:47.140Z,12.50
2018-06-05T05:35:14.413Z,9.90
2018-06-05T05:37:41.710Z,10.97
2018-06-05T05:40:09.114Z,11.03
2018-06-05T05:42:36.310Z,11.60
2018-06-05T05:45:03.633Z,12.10
2018-06-05T05:47:30.824Z,12.13
2018-06-05T05:49:58.024Z,11.80
2018-06-05T05:52:26.249Z,12.20
2018-06-05T05:54:53.488Z,12.27
2018-06-05T05:57:20.910Z,13.97
2018-06-05T05:59:49.226Z,12.60
2018-06-05T06:02:16.481Z,13.50
2018-06-05T06:04:43.729Z,13.47
2018-06-05T06:07:11.086Z,11.23
2018-06-05T06:09:38.423Z,10.90
2018-06-05T06:12:05.668Z,12.33
2018-06-05T06:14:33.057Z,11.70
2018-06-05T06:17:00.291Z,13.50
2018-06-05T06:19:27.615Z,14.10
2018-06-05T06:21:54.943Z,13.75
2018-06-05T06:24:22.193Z,13.65
2018-06-05T06:26:49.446Z,13.80
2018-06-05T06:29:16.766Z,12.53
2018-06-05T06:31:44.157Z,13.00
2018-06-05T06:34:11.423Z,11.80
2018-06-05T06:36:38.809Z,11.20
2018-06-05T06:39:08.997Z,10.70
2018-06-05T06:41:36.834Z,10.58
2018-06-05T06:44:04.160Z,10.40
2018-06-05T06:46:31.534Z,9.88
2018-06-05T06:48:58.868Z,9.13
2018-06-05T06:51:26.061Z,8.98
2018-06-05T06:53:53.352Z,8.30
2018-06-05T06:56:20.668Z,8.60
2018-06-05T06:58:47.978Z,7.90
2018-06-05T07:01:15.326Z,7.25
2018-06-05T07:03:42.621Z,6.65
2018-06-05T07:06:09.989Z,7.00
2018-06-05T07:08:37.361Z,6.80
2018-06-05T07:11:04.636Z,6.75
2018-06-05T07:13:32.064Z,5.97
2018-06-05T07:15:59.329Z,7.05
2018-06-05T07:18:26.651Z,7.42
2018-06-05T07:20:53.917Z,7.60
2018-06-05T07:23:21.835Z,8.18
2018-06-05T07:25:49.143Z,9.10
2018-06-05T07:28:16.671Z,8.70
2018-06-05T07:30:43.965Z,9.07
2018-06-05T07:33:11.331Z,9.50
2018-06-05T07:35:39.486Z,9.40
2018-06-05T07:38:07.264Z,7.80
2018-06-05T07:40:34.574Z,7.05
2018-06-05T07:43:01.878Z,6.95
2018-06-05T07:45:29.182Z,7.53
2018-06-05T07:47:56.425Z,7.87
2018-06-05T07:50:23.793Z,6.85
2018-06-05T07:52:51.080Z,6.67
2018-06-05T07:55:18.670Z,6.90
2018-06-05T07:57:45.929Z,6.45
2018-06-05T08:00:13.248Z,6.13
2018-06-05T08:02:40.512Z,6.50
2018-06-05T08:05:08.171Z,7.45
2018-06-05T08:07:35.517Z,6.50
2018-06-05T08:10:03.192Z,6.50
2018-06-05T08:12:30.486Z,7.80
2018-06-05T08:14:58.337Z,7.25
2018-06-05T08:17:25.634Z,6.97
2018-06-05T08:19:52.932Z,6.55
2018-06-05T08:22:20.340Z,6.25
2018-06-05T08:24:47.626Z,6.35
2018-06-05T08:27:14.868Z,6.07
2018-06-05T08:29:42.152Z,6.50
2018-06-05T08:32:14.784Z,6.47
2018-06-05T08:34:42.052Z,6.58
2018-06-05T08:37:10.565Z,7.10
2018-06-05T08:39:38.181Z,6.40
2018-06-05T08:42:05.794Z,7.80
2018-06-05T08:44:33.246Z,7.50
2018-06-05T08:47:00.598Z,8.40
2018-06-05T08:49:28.057Z,7.80
2018-06-05T08:51:55.393Z,7.17
2018-06-05T08:54:22.645Z,8.00
2018-06-05T08:56:49.900Z,7.00
2018-06-05T08:59:17.120Z,6.80
2018-06-05T09:26:14.700Z,5.97
2018-06-05T09:28:42.088Z,5.77
2018-06-05T09:31:10.342Z,6.40
2018-06-05T09:33:38.180Z,6.23
2018-06-05T09:36:05.469Z,6.27
2018-06-05T09:38:32.818Z,5.90
2018-06-05T09:41:00.101Z,6.70
2018-06-05T09:43:27.523Z,6.70
2018-06-05T09:45:54.783Z,5.67
2018-06-05T09:48:22.192Z,6.67
2018-06-05T09:50:49.696Z,5.77
2018-06-05T09:53:17.010Z,6.00
2018-06-05T09:55:44.511Z,5.57
2018-06-05T09:58:12.152Z,5.57
2018-06-05T10:00:45.259Z,6.23
2018-06-05T10:03:12.988Z,6.73
2018-06-05T10:05:40.378Z,6.03
2018-06-05T10:08:07.947Z,6.10
2018-06-05T10:10:35.973Z,6.20
2018-06-05T10:13:03.276Z,5.80
2018-06-05T10:15:30.551Z,6.27
2018-06-05T10:17:57.868Z,5.90
2018-06-05T10:20:25.406Z,5.27
2018-06-05T10:22:53.252Z,6.00
2018-06-05T10:25:20.480Z,5.93
2018-06-05T10:27:47.757Z,6.43
2018-06-05T10:30:14.984Z,7.80
2018-06-05T10:32:42.380Z,7.80
2018-06-05T10:35:09.766Z,7.63
2018-06-05T10:37:37.041Z,6.50
2018-06-05T10:40:04.275Z,6.50
2018-06-05T10:42:31.524Z,5.97
2018-06-05T10:44:58.847Z,5.60
2018-06-05T10:47:26.166Z,5.90
2018-06-05T10:49:53.381Z,4.80
2018-06-05T10:52:20.934Z,5.30
2018-06-05T10:54:48.309Z,5.97
2018-06-05T10:57:15.556Z,5.00
2018-06-05T10:59:43.746Z,5.10
2018-06-05T11:02:11.083Z,5.30
2018-06-05T11:04:38.429Z,4.90
2018-06-05T11:07:06.001Z,6.08
2018-06-05T11:09:33.320Z,4.60
2018-06-05T11:19:20.928Z,6.03
2018-06-05T11:21:48.535Z,5.40
2018-06-05T11:24:15.969Z,5.20
2018-06-05T11:26:43.306Z,5.00
2018-06-05T11:29:10.700Z,5.00
2018-06-05T11:31:38.151Z,5.62
2018-06-05T11:34:06.409Z,4.80
2018-06-05T11:36:34.290Z,5.35
2018-06-05T11:39:01.525Z,5.40
2018-06-05T11:41:29.133Z,5.10
2018-06-05T11:43:56.514Z,5.53
2018-06-05T11:49:03.749Z,4.20
2018-06-05T11:51:30.991Z,5.30
2018-06-05T11:53:58.512Z,4.80
2018-06-05T11:58:52.437Z,4.57
2018-06-05T12:01:19.750Z,4.60
2018-06-05T12:03:46.983Z,4.47
2018-06-05T12:06:14.214Z,4.72
2018-06-05T12:08:41.708Z,4.17
2018-06-05T12:11:10.033Z,4.22
2018-06-05T12:13:37.491Z,4.60
2018-06-05T12:16:04.875Z,4.15
2018-06-05T12:18:32.207Z,4.25
2018-06-05T12:20:59.566Z,4.40
2018-06-05T12:23:26.909Z,4.20
2018-06-05T12:25:54.171Z,3.80
2018-06-05T12:28:21.906Z,4.37
2018-06-05T12:30:49.186Z,4.20
2018-06-05T12:33:16.510Z,3.80
2018-06-05T12:35:43.825Z,2.73
2018-06-05T12:38:11.061Z,3.40
2018-06-05T12:40:38.737Z,3.40
2018-06-05T12:43:06.180Z,3.70
2018-06-05T12:45:33.514Z,3.45
2018-06-05T12:48:00.794Z,3.80
2018-06-05T12:50:28.311Z,3.30
2018-06-05T12:52:55.610Z,3.47
2018-06-05T12:55:22.879Z,3.22
2018-06-05T12:57:50.450Z,3.40
2018-06-05T13:00:20.301Z,3.40
2018-06-05T13:02:48.443Z,3.00
2018-06-05T13:05:16.366Z,3.92
2018-06-05T13:07:43.929Z,3.37
2018-06-05T13:10:11.897Z,3.00
2018-06-05T13:12:39.373Z,3.12
2018-06-05T13:15:07.518Z,3.37
2018-06-05T13:17:36.502Z,2.85
2018-06-05T13:20:03.945Z,3.05
2018-06-05T13:22:31.299Z,2.65
2018-06-05T13:24:58.653Z,2.72
2018-06-05T13:27:33.350Z,2.92
2018-06-05T13:30:01.001Z,2.42
2018-06-05T13:32:30.184Z,2.83
2018-06-05T13:34:57.625Z,2.40
2018-06-05T13:37:25.936Z,2.90
2018-06-05T13:39:53.389Z,2.58
2018-06-05T13:42:20.682Z,3.40
2018-06-05T13:44:48.104Z,2.45
2018-06-05T13:47:15.390Z,2.58
2018-06-05T13:49:43.255Z,3.15
2018-06-05T13:52:10.621Z,2.50
2018-06-05T13:57:04.776Z,2.70
2018-06-05T13:59:32.069Z,2.45
2018-06-05T14:01:59.373Z,2.95
2018-06-05T14:04:26.576Z,2.47
2018-06-05T14:06:53.828Z,2.70
2018-06-05T14:09:21.280Z,2.65
2018-06-05T14:11:48.468Z,2.50
2018-06-05T14:14:15.742Z,2.60
2018-06-05T14:16:42.977Z,4.60
2018-06-05T14:19:10.391Z,2.40
2018-06-05T14:21:37.744Z,1.98
2018-06-05T14:24:04.971Z,2.33
2018-06-05T14:26:32.486Z,2.50
2018-06-05T14:28:59.818Z,2.45
2018-06-05T14:31:27.118Z,2.95
2018-06-05T14:33:54.464Z,2.70
2018-06-05T14:36:21.639Z,2.52
2018-06-05T14:38:48.928Z,2.37
2018-06-05T14:41:16.365Z,2.83
2018-06-05T14:43:43.601Z,2.37
2018-06-05T14:46:11.004Z,2.70
2018-06-05T14:48:38.364Z,2.77
2018-06-05T14:51:05.627Z,3.15
2018-06-05T14:53:32.896Z,2.50
2018-06-05T14:56:00.499Z,2.62
2018-06-05T14:58:27.726Z,3.15
2018-06-05T15:00:55.071Z,3.00
2018-06-05T15:03:22.512Z,2.62
2018-06-05T15:05:49.748Z,2.85
2018-06-05T15:08:17.041Z,2.80
2018-06-05T15:10:44.367Z,2.40
2018-06-05T15:13:11.749Z,2.87
2018-06-05T15:15:39.161Z,2.67
2018-06-05T15:18:06.395Z,3.00
2018-06-05T15:20:33.615Z,2.90
2018-06-05T15:23:00.816Z,2.20
2018-06-05T15:25:28.067Z,3.50
2018-06-05T15:27:55.353Z,3.50
2018-06-05T15:30:22.633Z,3.00
2018-06-05T15:32:49.876Z,3.15
2018-06-05T15:35:17.182Z,3.05
2018-06-05T15:37:44.445Z,2.77
2018-06-05T15:40:11.784Z,3.55
2018-06-05T15:42:39.271Z,3.92
2018-06-05T15:45:06.581Z,4.83
2018-06-05T15:47:33.876Z,3.75
2018-06-05T15:50:01.148Z,3.30
2018-06-05T15:52:28.503Z,3.83
2018-06-05T15:54:55.753Z,3.40
2018-06-05T15:57:23.042Z,3.08
2018-06-05T15:59:50.321Z,3.25
2018-06-05T16:02:17.642Z,3.60
2018-06-05T16:04:45.003Z,3.50
2018-06-05T16:07:12.328Z,4.03
2018-06-05T16:12:06.465Z,3.60
2018-06-05T16:14:33.678Z,3.40
2018-06-05T16:17:00.954Z,3.58
2018-06-05T16:19:28.195Z,3.15
2018-06-05T16:21:55.518Z,3.80
2018-06-05T16:24:22.769Z,3.45
2018-06-05T16:26:50.048Z,4.40
2018-06-05T16:29:18.329Z,4.47
2018-06-05T16:31:45.630Z,5.20
2018-06-05T16:34:12.869Z,4.27
2018-06-05T16:36:40.421Z,4.60
2018-06-05T16:39:08.037Z,5.47
2018-06-05T16:41:35.409Z,5.40
2018-06-05T16:44:02.677Z,4.60
2018-06-05T16:46:30.516Z,6.13
2018-06-05T16:48:57.753Z,5.27
2018-06-05T16:51:25.006Z,5.30
2018-06-05T16:53:52.322Z,5.63
2018-06-05T16:56:19.553Z,5.03
2018-06-05T16:58:46.845Z,6.97
2018-06-05T17:01:14.163Z,5.30
2018-06-05T17:03:41.412Z,5.10
2018-06-05T17:06:08.956Z,4.47
2018-06-05T17:08:36.223Z,5.40
2018-06-05T17:11:03.481Z,5.00
2018-06-05T17:13:30.707Z,5.00
2018-06-05T17:15:57.956Z,5.80
2018-06-05T17:18:25.196Z,4.93
2018-06-05T17:20:52.448Z,6.70
2018-06-05T17:23:19.703Z,5.70
2018-06-05T17:28:13.807Z,5.03
2018-06-05T17:30:41.160Z,5.35
2018-06-05T17:33:08.448Z,5.37
2018-06-05T17:35:35.701Z,5.50
2018-06-05T17:38:03.013Z,5.40
2018-06-05T17:40:30.787Z,7.27
2018-06-05T17:42:58.073Z,5.40
2018-06-05T17:45:25.357Z,4.50
2018-06-05T17:47:52.703Z,5.20
2018-06-05T17:50:19.965Z,5.10
2018-06-05T17:52:47.229Z,5.37
2018-06-05T17:55:14.849Z,5.67
2018-06-05T17:57:42.233Z,5.10
2018-06-05T18:00:09.758Z,5.57
2018-06-05T18:02:37.065Z,5.00
2018-06-05T18:05:04.405Z,5.20
2018-06-05T18:07:31.665Z,5.80
2018-06-05T18:09:58.936Z,4.67
2018-06-05T18:12:26.219Z,5.93
2018-06-05T18:14:53.471Z,6.20
2018-06-05T18:17:20.655Z,6.27
2018-06-05T18:19:47.919Z,5.90
2018-06-05T18:22:15.187Z,5.70
2018-06-05T18:24:42.463Z,5.43
2018-06-05T18:27:09.810Z,5.80
2018-06-05T18:29:37.076Z,5.57
2018-06-05T18:32:04.530Z,5.73
2018-06-05T18:34:31.800Z,6.63
2018-06-05T18:36:59.116Z,7.50
2018-06-05T18:39:26.359Z,6.60
2018-06-05T18:41:53.590Z,6.90
2018-06-05T18:44:20.885Z,6.10
2018-06-05T18:46:48.140Z,5.60
2018-06-05T18:49:15.372Z,7.53
2018-06-05T18:51:42.723Z,6.60
2018-06-05T18:54:10.037Z,6.60
2018-06-05T18:56:37.489Z,7.73
2018-06-05T18:59:04.866Z,6.77
2018-06-05T19:01:32.293Z,6.90
2018-06-05T19:03:59.546Z,6.50
2018-06-05T19:06:26.704Z,5.90
2018-06-05T19:08:53.955Z,7.20
2018-06-05T19:11:21.178Z,7.20
2018-06-05T19:13:48.428Z,6.87
2018-06-05T19:16:15.681Z,6.30
2018-06-05T19:18:43.059Z,5.70
2018-06-05T19:21:10.326Z,6.40
2018-06-05T19:23:38.031Z,6.10
2018-06-05T19:26:05.365Z,6.78
2018-06-05T19:28:32.597Z,7.10
2018-06-05T19:30:59.972Z,7.37
2018-06-05T19:33:27.261Z,7.60
2018-06-05T19:35:54.486Z,8.40
2018-06-05T19:38:21.752Z,8.80
2018-06-05T19:43:15.903Z,10.60
2018-06-05T19:45:43.249Z,10.27
2018-06-05T19:48:10.656Z,11.10
2018-06-05T19:50:37.937Z,9.95
2018-06-05T19:53:05.207Z,10.13
2018-06-05T19:55:32.417Z,10.30
2018-06-05T19:57:59.903Z,12.82
2018-06-05T20:00:27.116Z,13.10
2018-06-05T20:02:54.682Z,12.90
2018-06-05T20:05:22.017Z,13.22
2018-06-05T20:07:49.244Z,12.93
2018-06-05T20:10:16.627Z,11.60
2018-06-05T20:12:43.952Z,11.10
2018-06-05T20:15:11.316Z,11.80
2018-06-05T20:17:38.698Z,12.17
2018-06-05T20:20:06.833Z,12.00
2018-06-05T20:22:34.331Z,12.13
2018-06-05T20:25:01.642Z,13.00
2018-06-05T20:27:29.269Z,11.83
2018-06-05T20:29:56.525Z,10.60
2018-06-05T20:32:23.924Z,11.63
2018-06-05T20:34:51.172Z,11.30
2018-06-05T20:37:18.439Z,10.30
2018-06-05T20:39:45.764Z,10.07
2018-06-05T20:42:13.090Z,11.50
2018-06-05T20:44:40.536Z,9.07
2018-06-05T20:47:07.790Z,9.50
2018-06-05T20:49:35.153Z,9.40
2018-06-05T20:52:02.428Z,8.93
2018-06-05T20:54:29.640Z,9.13
2018-06-05T20:56:56.856Z,8.97
2018-06-05T20:59:24.049Z,8.60
2018-06-05T21:01:51.325Z,8.17
2018-06-05T21:04:18.587Z,7.60
2018-06-05T21:06:45.773Z,7.93
2018-06-05T21:09:13.105Z,6.83
2018-06-05T21:11:40.429Z,6.67
2018-06-05T21:14:07.666Z,6.20
2018-06-05T21:16:34.892Z,5.87
2018-06-05T21:19:02.120Z,5.40
2018-06-05T21:21:29.464Z,5.00
2018-06-05T21:23:56.676Z,5.50
2018-06-05T21:26:23.872Z,5.57
2018-06-05T21:28:51.261Z,4.50
2018-06-05T21:31:18.447Z,4.50
2018-06-05T21:33:45.652Z,5.80
2018-06-05T21:36:12.896Z,4.70
2018-06-05T21:38:40.146Z,4.40
2018-06-05T21:41:07.368Z,4.53
2018-06-05T21:43:34.610Z,4.00
2018-06-05T21:46:01.817Z,4.37
2018-06-05T21:48:29.011Z,4.10
2018-06-05T21:50:56.407Z,4.20
2018-06-05T21:53:23.628Z,4.30
2018-06-05T21:55:51.013Z,4.13
2018-06-05T21:58:18.745Z,4.10
2018-06-05T22:00:45.943Z,4.10
2018-06-05T22:03:13.292Z,4.27
2018-06-05T22:05:40.479Z,4.10
2018-06-05T22:08:07.692Z,3.80
2018-06-05T22:10:34.929Z,3.47
2018-06-05T22:13:02.148Z,4.10
2018-06-05T22:15:29.469Z,3.97
2018-06-05T22:17:56.658Z,4.50
2018-06-05T22:20:23.852Z,4.67
2018-06-05T22:22:51.087Z,3.70
2018-06-05T22:25:18.461Z,4.13
2018-06-05T22:27:45.710Z,3.83
2018-06-05T22:30:13.007Z,4.07
2018-06-05T22:32:40.209Z,4.43
2018-06-05T22:35:07.465Z,3.87
2018-06-05T22:37:34.802Z,4.00
2018-06-05T22:40:02.059Z,4.50
2018-06-05T22:42:29.336Z,3.90
2018-06-05T22:44:56.625Z,4.60
2018-06-05T22:47:23.821Z,3.80
2018-06-05T22:49:51.037Z,4.67
2018-06-05T22:52:18.622Z,4.33
2018-06-05T22:54:45.913Z,4.47
2018-06-05T22:57:13.254Z,4.80
2018-06-05T22:59:40.658Z,4.93
2018-06-05T23:02:08.017Z,4.60
2018-06-05T23:04:35.436Z,5.40
2018-06-05T23:07:02.701Z,4.90
2018-06-05T23:09:29.901Z,3.90
2018-06-05T23:11:57.126Z,4.33
2018-06-05T23:14:24.348Z,4.63
2018-06-05T23:16:51.555Z,4.83
2018-06-05T23:19:18.899Z,4.93
2018-06-05T23:21:46.138Z,4.60
2018-06-05T23:24:13.449Z,4.20
2018-06-05T23:26:40.751Z,4.83
2018-06-05T23:29:07.952Z,4.50
2018-06-05T23:31:35.114Z,4.20
2018-06-05T23:34:02.345Z,4.90
2018-06-05T23:36:29.579Z,4.60
2018-06-05T23:38:56.803Z,5.70
2018-06-05T23:41:24.099Z,4.90
2018-06-05T23:43:51.307Z,4.30
2018-06-05T23:46:18.546Z,4.43
2018-06-05T23:48:45.724Z,4.50
2018-06-05T23:51:12.943Z,4.23
2018-06-05T23:53:40.200Z,4.00
2018-06-05T23:56:07.413Z,4.83
2018-06-05T23:58:34.620Z,5.30
